createdAt,value
2023-05-03T00:00:42.995Z,93736.50
2023-05-03T00:03:10.755Z,93738.59
2023-05-03T00:05:38.274Z,93733.34
2023-05-03T00:08:05.631Z,93732.88
2023-05-03T00:10:33.112Z,93741.63
2023-05-03T00:13:00.257Z,93734.13
2023-05-03T00:15:27.517Z,93739.19
2023-05-03T00:17:55.669Z,93739.53
2023-05-03T00:20:23.309Z,93742.94
2023-05-03T00:22:50.552Z,93736.37
2023-05-03T00:25:19.819Z,93738.53
2023-05-03T00:27:47.033Z,93744.13
2023-05-03T00:30:14.350Z,93749.69
2023-05-03T00:32:42.437Z,93763.31
2023-05-03T00:35:09.713Z,93755.06
2023-05-03T00:37:36.976Z,93763.88
2023-05-03T00:40:05.652Z,93771.41
2023-05-03T00:42:34.186Z,93767.72
2023-05-03T00:45:01.559Z,93758.87
2023-05-03T00:47:29.090Z,93743.59
2023-05-03T00:49:56.650Z,93737.66
2023-05-03T00:52:23.940Z,93739.44
2023-05-03T00:54:52.207Z,93730.19
2023-05-03T00:57:20.160Z,93724.62
2023-05-03T00:59:47.492Z,93715.13
2023-05-03T01:02:14.895Z,93715.78
2023-05-03T01:04:43.444Z,93715.75
2023-05-03T01:07:16.957Z,93718.03
2023-05-03T01:10:00.340Z,93711.56
2023-05-03T01:12:39.834Z,93714.41
2023-05-03T01:15:26.093Z,93707.22
2023-05-03T01:17:58.266Z,93697.00
2023-05-03T01:20:27.152Z,93692.06
2023-05-03T01:23:13.741Z,93699.97
2023-05-03T01:25:41.865Z,93697.59
2023-05-03T01:28:09.321Z,93672.56
2023-05-03T01:30:37.149Z,93690.56
2023-05-03T01:33:07.963Z,93692.88
2023-05-03T01:35:44.146Z,93693.34
2023-05-03T01:38:12.380Z,93692.94
2023-05-03T01:40:45.819Z,93685.31
2023-05-03T01:43:17.276Z,93679.28
2023-05-03T01:45:48.073Z,93684.47
2023-05-03T01:48:16.708Z,93686.06
2023-05-03T01:50:44.679Z,93683.59
2023-05-03T01:53:12.385Z,93682.03
2023-05-03T01:55:40.119Z,93678.25
2023-05-03T01:58:07.381Z,93676.50
2023-05-03T02:00:34.845Z,93665.91
2023-05-03T02:03:02.422Z,93671.72
2023-05-03T02:05:29.672Z,93667.91
2023-05-03T02:07:56.891Z,93661.09
2023-05-03T02:10:24.428Z,93660.59
2023-05-03T02:12:51.612Z,93666.38
2023-05-03T02:15:20.409Z,93662.63
2023-05-03T02:17:49.728Z,93649.50
2023-05-03T02:20:17.151Z,93649.84
2023-05-03T02:22:44.342Z,93644.94
2023-05-03T02:25:11.843Z,93650.53
2023-05-03T02:27:38.952Z,93655.53
2023-05-03T02:30:07.926Z,93657.00
2023-05-03T02:32:37.896Z,93655.31
2023-05-03T02:35:05.526Z,93668.81
2023-05-03T02:37:32.920Z,93658.22
2023-05-03T02:40:02.644Z,93667.59
2023-05-03T02:42:29.930Z,93658.38
2023-05-03T02:44:57.786Z,93653.16
2023-05-03T02:47:25.786Z,93649.59
2023-05-03T02:49:52.958Z,93651.56
2023-05-03T02:52:20.203Z,93652.94
2023-05-03T02:54:49.656Z,93655.09
2023-05-03T02:57:17.209Z,93660.88
2023-05-03T02:59:44.455Z,93659.94
2023-05-03T03:02:12.010Z,93664.47
2023-05-03T03:04:39.218Z,93655.41
2023-05-03T03:07:06.664Z,93666.63
2023-05-03T03:09:34.666Z,93671.69
2023-05-03T03:12:05.527Z,93670.19
2023-05-03T03:14:32.695Z,93663.97
2023-05-03T03:17:01.384Z,93657.72
2023-05-03T03:19:28.969Z,93666.94
2023-05-03T03:21:56.421Z,93666.13
2023-05-03T03:24:25.530Z,93667.78
2023-05-03T03:26:54.266Z,93681.38
2023-05-03T03:29:24.308Z,93684.94
2023-05-03T03:31:52.367Z,93682.41
2023-05-03T08:47:05.028Z,93747.00
2023-05-03T08:49:38.081Z,93747.00
2023-05-03T08:52:06.977Z,93735.16
2023-05-03T08:54:34.664Z,93740.97
2023-05-03T08:57:01.974Z,93734.50
2023-05-03T08:59:29.846Z,93738.69
2023-05-03T09:01:57.564Z,93744.69
2023-05-03T09:04:34.999Z,93738.50
2023-05-03T09:07:14.545Z,93739.31
2023-05-03T09:09:42.471Z,93735.75
2023-05-03T09:12:11.179Z,93729.53
2023-05-03T09:14:46.741Z,93729.00
2023-05-03T09:17:16.460Z,93731.25
2023-05-03T09:20:02.743Z,93722.00
2023-05-03T09:22:34.542Z,93726.94
2023-05-03T09:25:01.940Z,93724.88
2023-05-03T09:27:29.342Z,93716.31
2023-05-03T09:29:57.079Z,93721.19
2023-05-03T09:32:25.428Z,93706.37
2023-05-03T09:35:08.713Z,93699.19
2023-05-03T09:37:38.959Z,93697.78
2023-05-03T09:40:11.737Z,93698.63
2023-05-03T09:42:43.799Z,93698.75
2023-05-03T09:45:11.533Z,93698.81
2023-05-03T09:47:52.004Z,93719.28
2023-05-03T09:50:19.733Z,93703.44
2023-05-03T09:52:47.651Z,93690.81
2023-05-03T09:55:17.516Z,93691.28
2023-05-03T09:57:47.971Z,93691.69
2023-05-03T10:00:17.418Z,93689.78
2023-05-03T10:02:45.830Z,93689.69
2023-05-03T10:05:14.100Z,93688.34
2023-05-03T10:07:43.566Z,93687.84
2023-05-03T10:10:12.284Z,93691.78
2023-05-03T10:12:42.908Z,93688.81
2023-05-03T10:15:13.880Z,93672.03
2023-05-03T10:17:48.433Z,93672.66
2023-05-03T10:20:32.406Z,93678.66
2023-05-03T10:23:06.334Z,93670.97
2023-05-03T10:25:36.546Z,93661.94
2023-05-03T10:28:09.093Z,93671.16
2023-05-03T10:30:40.778Z,93661.78
2023-05-03T10:33:14.485Z,93670.03
2023-05-03T10:35:44.626Z,93665.44
2023-05-03T10:38:21.841Z,93663.72
2023-05-03T10:40:49.900Z,93671.47
2023-05-03T10:43:37.229Z,93670.81
2023-05-03T10:46:06.908Z,93657.72
2023-05-03T10:48:35.694Z,93660.09
2023-05-03T10:51:29.217Z,93660.31
2023-05-03T10:53:57.103Z,93668.97
2023-05-03T10:56:24.694Z,93668.72
2023-05-03T10:58:56.260Z,93659.53
2023-05-03T11:01:25.014Z,93662.44
2023-05-03T11:03:56.829Z,93664.63
2023-05-03T11:06:33.039Z,93663.09
2023-05-03T11:09:01.746Z,93650.59
2023-05-03T11:11:30.232Z,93641.97
2023-05-03T11:13:58.060Z,93644.69
2023-05-03T11:16:26.203Z,93653.13
2023-05-03T11:18:54.256Z,93660.59
2023-05-03T11:21:21.598Z,93660.63
2023-05-03T11:23:49.107Z,93666.75
2023-05-03T11:26:17.062Z,93671.19
2023-05-03T11:28:45.435Z,93661.00
2023-05-03T11:31:13.920Z,93657.94
2023-05-03T11:33:41.902Z,93661.03
2023-05-03T11:36:09.993Z,93650.56
2023-05-03T11:38:39.759Z,93641.84
2023-05-03T11:41:17.824Z,93641.34
2023-05-03T11:44:00.499Z,93645.00
2023-05-03T11:46:39.439Z,93642.97
2023-05-03T11:49:07.160Z,93641.19
2023-05-03T11:51:35.040Z,93639.41
2023-05-03T11:54:13.555Z,93637.34
2023-05-03T11:56:52.855Z,93641.84
2023-05-03T11:59:21.017Z,93633.81
2023-05-03T12:01:49.632Z,93623.91
2023-05-03T12:04:17.461Z,93627.22
2023-05-03T12:06:54.084Z,93622.44
2023-05-03T12:09:27.313Z,93624.00
2023-05-03T12:11:56.037Z,93630.53
2023-05-03T12:14:24.826Z,93634.28
2023-05-03T12:16:56.627Z,93635.81
2023-05-03T12:19:26.896Z,93622.19
2023-05-03T12:22:09.415Z,93635.09
2023-05-03T12:24:45.193Z,93636.03
2023-05-03T12:27:14.247Z,93634.19
2023-05-03T12:29:42.269Z,93636.37
2023-05-03T12:32:12.135Z,93636.09
2023-05-03T12:34:41.439Z,93638.75
2023-05-03T12:37:11.678Z,93626.81
2023-05-03T12:39:40.532Z,93619.88
2023-05-03T12:42:09.368Z,93618.03
2023-05-03T12:44:42.137Z,93626.03
2023-05-03T12:47:11.395Z,93620.06
2023-05-03T12:49:40.320Z,93619.84
2023-05-03T12:54:41.478Z,93613.03
2023-05-03T12:57:15.514Z,93605.09
2023-05-03T12:59:51.376Z,93609.56
2023-05-03T13:05:01.803Z,93606.06
2023-05-03T13:07:31.695Z,93610.41
2023-05-03T13:12:32.930Z,93618.94
2023-05-03T13:15:02.903Z,93614.41
2023-05-03T13:17:32.700Z,93624.69
2023-05-03T13:20:00.220Z,93634.69
2023-05-03T13:22:27.909Z,93636.13
2023-05-03T13:24:56.301Z,93638.94
2023-05-03T13:27:23.773Z,93645.41
2023-05-03T13:29:51.611Z,93632.19
2023-05-03T13:32:19.568Z,93638.94
2023-05-03T13:34:47.241Z,93632.94
2023-05-03T13:37:19.407Z,93637.97
2023-05-03T13:39:47.368Z,93641.03
2023-05-03T13:42:14.937Z,93639.66
2023-05-03T13:44:46.658Z,93631.03
2023-05-03T13:47:14.871Z,93628.25
2023-05-03T13:49:42.285Z,93630.28
2023-05-03T13:52:09.689Z,93631.13
2023-05-03T13:54:37.618Z,93622.09
2023-05-03T13:57:04.987Z,93619.38
2023-05-03T13:59:32.280Z,93619.53
2023-05-03T14:02:00.540Z,93620.91
2023-05-03T14:04:28.530Z,93617.69
2023-05-03T14:06:55.979Z,93614.78
2023-05-03T14:09:23.764Z,93613.53
2023-05-03T14:11:51.707Z,93610.44
2023-05-03T14:14:18.966Z,93617.00
2023-05-03T14:16:47.245Z,93629.28
2023-05-03T14:19:17.633Z,93627.72
2023-05-03T14:21:46.914Z,93641.28
2023-05-03T14:24:14.565Z,93635.72
2023-05-03T14:26:41.970Z,93632.06
2023-05-03T14:29:09.376Z,93615.22
2023-05-03T14:31:37.115Z,93601.00
2023-05-03T14:34:04.487Z,93613.63
2023-05-03T14:36:38.799Z,93623.16
2023-05-03T14:39:07.070Z,93617.72
2023-05-03T14:41:34.620Z,93611.69
2023-05-03T14:44:02.291Z,93613.16
2023-05-03T14:46:30.002Z,93620.78
2023-05-03T14:48:57.483Z,93611.78
2023-05-03T14:51:24.847Z,93619.31
2023-05-03T14:53:52.776Z,93631.00
2023-05-03T14:56:20.178Z,93608.97
2023-05-03T14:58:47.472Z,93610.31
2023-05-03T15:01:19.899Z,93613.50
2023-05-03T15:03:47.316Z,93603.63
2023-05-03T15:06:15.402Z,93598.37
2023-05-03T15:08:43.249Z,93613.72
2023-05-03T15:11:10.798Z,93604.75
2023-05-03T15:13:38.494Z,93602.94
2023-05-03T15:16:07.004Z,93599.84
2023-05-03T15:18:34.388Z,93596.56
2023-05-03T15:21:02.084Z,93603.63
2023-05-03T15:23:29.502Z,93602.12
2023-05-03T15:25:56.929Z,93607.34
2023-05-03T15:28:24.596Z,93619.41
2023-05-03T15:30:52.008Z,93615.97
2023-05-03T15:33:19.825Z,93622.47
2023-05-03T15:35:47.558Z,93605.41
2023-05-03T15:38:15.056Z,93592.34
2023-05-03T15:40:42.396Z,93572.31
2023-05-03T15:43:10.078Z,93574.03
2023-05-03T15:45:37.411Z,93601.31
2023-05-03T15:48:04.988Z,93616.78
2023-05-03T15:50:32.756Z,93609.84
2023-05-03T15:53:00.532Z,93619.16
2023-05-03T15:55:27.852Z,93619.06
2023-05-03T15:57:57.262Z,93616.38
2023-05-03T16:00:25.715Z,93627.16
2023-05-03T16:02:53.443Z,93617.84
2023-05-03T16:05:20.918Z,93620.59
2023-05-03T16:07:48.382Z,93612.59
2023-05-03T16:10:17.133Z,93603.84
2023-05-03T16:12:44.537Z,93595.38
2023-05-03T16:15:12.552Z,93590.72
2023-05-03T16:17:40.380Z,93603.84
2023-05-03T16:20:10.997Z,93604.53
2023-05-03T16:22:38.685Z,93609.97
2023-05-03T16:25:12.872Z,93612.69
2023-05-03T16:27:42.927Z,93598.84
2023-05-03T16:30:10.959Z,93596.56
2023-05-03T16:32:38.460Z,93609.16
2023-05-03T16:35:06.291Z,93606.66
2023-05-03T16:37:37.253Z,93610.31
2023-05-03T16:40:11.724Z,93611.09
2023-05-03T16:42:39.689Z,93614.97
2023-05-03T16:45:16.061Z,93612.69
2023-05-03T16:47:46.349Z,93598.94
2023-05-03T16:50:14.074Z,93609.13
2023-05-03T16:52:43.555Z,93620.66
2023-05-03T16:55:12.713Z,93615.88
2023-05-03T16:57:40.465Z,93613.09
2023-05-03T17:00:09.811Z,93594.84
2023-05-03T17:02:39.180Z,93591.53
2023-05-03T17:05:13.054Z,93576.63
2023-05-03T17:07:43.102Z,93590.06
2023-05-03T17:10:10.722Z,93614.72
2023-05-03T17:12:38.200Z,93615.53
2023-05-03T17:15:06.631Z,93607.56
2023-05-03T17:17:33.915Z,93615.75
2023-05-03T17:20:01.427Z,93621.31
2023-05-03T17:22:29.372Z,93627.25
2023-05-03T17:24:59.774Z,93632.81
2023-05-03T17:27:27.173Z,93632.13
2023-05-03T17:29:57.626Z,93627.03
2023-05-03T17:32:25.089Z,93622.22
2023-05-03T17:34:52.440Z,93619.63
2023-05-03T17:37:20.476Z,93616.06
2023-05-03T17:39:47.761Z,93612.34
2023-05-03T17:42:15.040Z,93618.41
2023-05-03T17:44:42.860Z,93624.38
2023-05-03T17:47:11.306Z,93612.63
2023-05-03T17:49:38.668Z,93625.84
2023-05-03T17:52:07.252Z,93625.62
2023-05-03T17:54:35.418Z,93622.00
2023-05-03T17:57:03.945Z,93618.28
2023-05-03T17:59:31.754Z,93614.22
2023-05-03T18:01:59.162Z,93608.44
2023-05-03T18:04:27.299Z,93599.91
2023-05-03T18:06:54.852Z,93592.31
2023-05-03T18:09:24.000Z,93598.37
2023-05-03T18:11:54.792Z,93599.75
2023-05-03T18:14:22.266Z,93637.47
2023-05-03T18:16:49.744Z,93634.31
2023-05-03T18:19:17.434Z,93646.44
2023-05-03T18:21:44.819Z,93655.28
2023-05-03T18:24:12.128Z,93657.78
2023-05-03T18:26:39.842Z,93659.84
2023-05-03T18:29:07.991Z,93657.06
2023-05-03T18:31:37.275Z,93648.00
2023-05-03T18:34:05.374Z,93644.78
2023-05-03T18:36:32.837Z,93643.72
2023-05-03T18:39:00.196Z,93638.19
2023-05-03T18:41:28.091Z,93638.41
2023-05-03T18:43:57.416Z,93646.84
2023-05-03T18:46:24.999Z,93646.53
2023-05-03T18:48:53.627Z,93638.94
2023-05-03T18:51:20.964Z,93646.25
2023-05-03T18:53:48.313Z,93639.13
2023-05-03T18:56:15.989Z,93657.44
2023-05-03T18:58:43.340Z,93657.06
2023-05-03T19:01:10.792Z,93657.47
2023-05-03T19:03:38.559Z,93664.44
2023-05-03T19:06:08.684Z,93663.22
2023-05-03T19:08:36.013Z,93673.78
2023-05-03T19:11:11.256Z,93666.87
2023-05-03T19:13:39.323Z,93670.25
2023-05-03T19:16:07.473Z,93650.34
2023-05-03T19:18:37.507Z,93670.47
2023-05-03T19:21:05.145Z,93657.88
2023-05-03T19:23:33.367Z,93654.38
2023-05-03T19:26:00.947Z,93647.00
2023-05-03T19:28:28.382Z,93655.25
2023-05-03T19:30:56.212Z,93650.56
2023-05-03T19:33:23.673Z,93657.03
2023-05-03T19:35:51.560Z,93659.84
2023-05-03T19:38:19.470Z,93652.13
2023-05-03T19:40:57.677Z,93655.84
2023-05-03T19:43:26.136Z,93644.53
2023-05-03T19:45:53.579Z,93648.25
2023-05-03T19:48:20.957Z,93654.44
2023-05-03T19:50:48.645Z,93655.59
2023-05-03T19:53:16.306Z,93655.97
2023-05-03T19:55:55.067Z,93651.56
2023-05-03T19:58:22.615Z,93658.44
2023-05-03T20:00:50.072Z,93661.50
2023-05-03T20:03:18.341Z,93661.56
2023-05-03T20:05:47.244Z,93657.53
2023-05-03T20:08:14.786Z,93650.69
2023-05-03T20:10:44.710Z,93649.03
2023-05-03T20:13:13.746Z,93639.41
2023-05-03T20:15:42.435Z,93646.72
2023-05-03T20:18:10.122Z,93645.63
2023-05-03T20:20:37.668Z,93640.25
2023-05-03T20:23:05.109Z,93649.72
2023-05-03T20:25:32.775Z,93645.94
2023-05-03T20:28:00.485Z,93647.78
2023-05-03T20:30:29.348Z,93655.16
2023-05-03T20:32:56.980Z,93640.72
2023-05-03T20:35:24.481Z,93640.00
2023-05-03T20:37:51.754Z,93635.22
2023-05-03T20:40:19.438Z,93631.75
2023-05-03T20:42:46.878Z,93640.06
2023-05-03T20:45:14.159Z,93630.00
2023-05-03T20:47:41.822Z,93639.06
2023-05-03T20:50:09.590Z,93638.22
2023-05-03T20:52:36.912Z,93629.44
2023-05-03T20:55:04.893Z,93631.91
2023-05-03T20:57:32.331Z,93638.16
2023-05-03T21:00:00.279Z,93637.22
2023-05-03T21:02:28.050Z,93639.34
2023-05-03T21:04:55.443Z,93634.03
2023-05-03T21:07:22.902Z,93637.13
2023-05-03T21:09:50.632Z,93628.47
2023-05-03T21:12:17.908Z,93627.44
2023-05-03T21:14:45.339Z,93624.38
2023-05-03T21:17:13.069Z,93624.62
2023-05-03T21:19:40.524Z,93627.66
2023-05-03T21:22:11.894Z,93615.72
2023-05-03T21:24:39.454Z,93626.63
2023-05-03T21:27:06.772Z,93627.66
2023-05-03T21:29:34.070Z,93623.59
2023-05-03T21:32:01.816Z,93624.94
2023-05-03T21:34:29.130Z,93624.97
2023-05-03T21:36:56.551Z,93622.16
2023-05-03T21:39:24.305Z,93616.41
2023-05-03T21:41:51.583Z,93618.47
2023-05-03T21:44:18.835Z,93620.66
2023-05-03T21:46:46.738Z,93619.69
2023-05-03T21:49:15.441Z,93618.34
2023-05-03T21:51:42.732Z,93619.88
2023-05-03T21:54:10.382Z,93630.84
2023-05-03T21:56:37.808Z,93618.62
2023-05-03T21:59:05.882Z,93619.69
2023-05-03T22:01:33.528Z,93611.41
2023-05-03T22:04:01.841Z,93611.41
2023-05-03T22:06:31.232Z,93611.09
2023-05-03T22:08:58.518Z,93615.09
2023-05-03T22:11:26.260Z,93601.44
2023-05-03T22:14:06.498Z,93594.28
2023-05-03T22:16:38.011Z,93592.34
2023-05-03T22:19:05.634Z,93588.12
2023-05-03T22:21:32.990Z,93579.38
2023-05-03T22:24:02.191Z,93586.66
2023-05-03T22:26:29.976Z,93588.22
2023-05-03T22:28:57.374Z,93585.63
2023-05-03T22:31:25.205Z,93582.34
2023-05-03T22:33:52.782Z,93574.13
2023-05-03T22:36:20.000Z,93567.19
2023-05-03T22:38:47.654Z,93569.56
2023-05-03T22:41:14.994Z,93569.78
2023-05-03T22:43:42.697Z,93570.97
2023-05-03T22:46:10.465Z,93567.25
2023-05-03T22:48:37.689Z,93567.37
2023-05-03T22:51:05.595Z,93557.84
2023-05-03T22:53:33.341Z,93556.81
2023-05-03T22:56:04.430Z,93547.03
2023-05-03T22:58:32.152Z,93546.47
2023-05-03T23:00:59.814Z,93541.78
2023-05-03T23:03:27.697Z,93551.16
2023-05-03T23:05:55.349Z,93540.22
2023-05-03T23:08:23.625Z,93537.37
2023-05-03T23:10:50.953Z,93544.28
2023-05-03T23:13:18.298Z,93545.09
2023-05-03T23:15:46.002Z,93541.12
2023-05-03T23:18:13.659Z,93543.28
2023-05-03T23:20:41.215Z,93541.25
2023-05-03T23:23:09.144Z,93548.50
2023-05-03T23:25:37.788Z,93547.59
2023-05-03T23:28:05.623Z,93539.72
2023-05-03T23:30:33.641Z,93533.25
2023-05-03T23:33:01.424Z,93522.06
2023-05-03T23:35:28.990Z,93525.94
2023-05-03T23:37:56.631Z,93518.12
2023-05-03T23:40:24.197Z,93516.50
2023-05-03T23:42:51.551Z,93523.81
2023-05-03T23:45:19.197Z,93518.03
2023-05-03T23:47:46.592Z,93526.03
2023-05-03T23:50:14.157Z,93520.25
2023-05-03T23:52:42.248Z,93530.03
2023-05-03T23:55:10.508Z,93522.63
2023-05-03T23:57:38.101Z,93520.72
